sensor_id;sensor_type;location;lat;lon;timestamp;pressure;altitude;pressure_sealevel;temperature;humidity
59545;BME280;45368;55.002;-1.592;2023-06-19T00:00:00;99803.91;;;17.36;68.70
59545;BME280;45368;55.002;-1.592;2023-06-19T00:02:28;99806.51;;;17.46;69.32
59545;BME280;45368;55.002;-1.592;2023-06-19T00:04:55;99800.31;;;16.98;69.99
59545;BME280;45368;55.002;-1.592;2023-06-19T00:07:23;99796.17;;;17.35;68.79
59545;BME280;45368;55.002;-1.592;2023-06-19T00:09:50;99790.68;;;17.42;68.31
59545;BME280;45368;55.002;-1.592;2023-06-19T00:12:18;99791.62;;;16.90;68.69
59545;BME280;45368;55.002;-1.592;2023-06-19T00:14:45;99791.43;;;16.91;69.71
59545;BME280;45368;55.002;-1.592;2023-06-19T00:17:12;99796.26;;;16.32;70.47
59545;BME280;45368;55.002;-1.592;2023-06-19T00:19:40;99795.98;;;16.17;71.77
59545;BME280;45368;55.002;-1.592;2023-06-19T00:22:06;99797.57;;;16.00;71.12
59545;BME280;45368;55.002;-1.592;2023-06-19T00:24:34;99796.39;;;16.21;71.83
59545;BME280;45368;55.002;-1.592;2023-06-19T00:27:02;99796.68;;;16.21;70.85
59545;BME280;45368;55.002;-1.592;2023-06-19T00:29:29;99791.50;;;16.13;72.04
59545;BME280;45368;55.002;-1.592;2023-06-19T00:31:56;99785.64;;;16.24;70.61
59545;BME280;45368;55.002;-1.592;2023-06-19T00:34:24;99781.11;;;16.51;70.35
59545;BME280;45368;55.002;-1.592;2023-06-19T00:36:51;99775.14;;;16.86;68.81
59545;BME280;45368;55.002;-1.592;2023-06-19T00:39:19;99771.06;;;17.34;68.14
59545;BME280;45368;55.002;-1.592;2023-06-19T00:41:46;99767.58;;;16.63;69.60
59545;BME280;45368;55.002;-1.592;2023-06-19T00:44:14;99761.12;;;17.49;68.24
59545;BME280;45368;55.002;-1.592;2023-06-19T00:46:41;99759.99;;;17.03;68.38
59545;BME280;45368;55.002;-1.592;2023-06-19T00:49:08;99747.09;;;17.62;68.08
59545;BME280;45368;55.002;-1.592;2023-06-19T00:51:37;99743.19;;;17.47;67.19
59545;BME280;45368;55.002;-1.592;2023-06-19T00:54:04;99746.16;;;17.63;67.53
59545;BME280;45368;55.002;-1.592;2023-06-19T00:56:31;99755.11;;;17.23;68.13
59545;BME280;45368;55.002;-1.592;2023-06-19T00:58:59;99756.28;;;18.03;66.50
59545;BME280;45368;55.002;-1.592;2023-06-19T01:01:26;99750.49;;;18.30;65.15
59545;BME280;45368;55.002;-1.592;2023-06-19T01:03:54;99749.99;;;17.54;66.51
59545;BME280;45368;55.002;-1.592;2023-06-19T01:06:25;99743.16;;;17.79;66.01
59545;BME280;45368;55.002;-1.592;2023-06-19T01:08:58;99736.37;;;17.58;66.36
59545;BME280;45368;55.002;-1.592;2023-06-19T01:11:32;99739.81;;;17.76;66.10
59545;BME280;45368;55.002;-1.592;2023-06-19T01:14:04;99740.73;;;17.49;67.19
59545;BME280;45368;55.002;-1.592;2023-06-19T01:16:33;99746.48;;;16.99;67.85
59545;BME280;45368;55.002;-1.592;2023-06-19T01:19:02;99750.12;;;16.91;68.76
59545;BME280;45368;55.002;-1.592;2023-06-19T01:21:31;99746.29;;;17.05;68.56
59545;BME280;45368;55.002;-1.592;2023-06-19T01:23:58;99738.90;;;16.41;69.72
59545;BME280;45368;55.002;-1.592;2023-06-19T01:26:25;99732.36;;;17.07;69.55
59545;BME280;45368;55.002;-1.592;2023-06-19T01:28:54;99725.93;;;16.17;71.71
59545;BME280;45368;55.002;-1.592;2023-06-19T01:31:26;99720.39;;;16.03;72.13
59545;BME280;45368;55.002;-1.592;2023-06-19T01:33:56;99714.36;;;16.96;70.52
59545;BME280;45368;55.002;-1.592;2023-06-19T01:36:24;99718.13;;;15.58;72.03
59545;BME280;45368;55.002;-1.592;2023-06-19T01:38:55;99718.07;;;15.80;72.83
59545;BME280;45368;55.002;-1.592;2023-06-19T01:41:25;99721.48;;;15.87;73.51
59545;BME280;45368;55.002;-1.592;2023-06-19T01:43:53;99713.00;;;16.63;71.70
59545;BME280;45368;55.002;-1.592;2023-06-19T01:46:21;99710.07;;;16.40;70.86
59545;BME280;45368;55.002;-1.592;2023-06-19T01:48:49;99717.24;;;15.75;73.52
59545;BME280;45368;55.002;-1.592;2023-06-19T01:51:16;99712.95;;;16.08;73.09
59545;BME280;45368;55.002;-1.592;2023-06-19T01:53:43;99710.33;;;16.15;72.48
59545;BME280;45368;55.002;-1.592;2023-06-19T01:56:11;99707.98;;;16.39;70.91
59545;BME280;45368;55.002;-1.592;2023-06-19T01:58:38;99701.22;;;16.77;69.84
59545;BME280;45368;55.002;-1.592;2023-06-19T02:01:05;99697.81;;;16.24;70.72
59545;BME280;45368;55.002;-1.592;2023-06-19T02:03:32;99695.83;;;16.89;68.76
59545;BME280;45368;55.002;-1.592;2023-06-19T02:06:00;99692.63;;;16.78;68.25
59545;BME280;45368;55.002;-1.592;2023-06-19T02:08:27;99692.13;;;16.47;69.70
59545;BME280;45368;55.002;-1.592;2023-06-19T02:10:54;99690.52;;;16.78;68.55
59545;BME280;45368;55.002;-1.592;2023-06-19T02:13:22;99688.87;;;16.64;69.39
59545;BME280;45368;55.002;-1.592;2023-06-19T02:15:49;99689.93;;;16.68;68.73
59545;BME280;45368;55.002;-1.592;2023-06-19T02:18:16;99692.73;;;16.77;68.79
59545;BME280;45368;55.002;-1.592;2023-06-19T02:20:44;99693.52;;;16.57;68.89
59545;BME280;45368;55.002;-1.592;2023-06-19T02:23:12;99697.18;;;16.51;69.62
59545;BME280;45368;55.002;-1.592;2023-06-19T02:25:38;99701.41;;;16.56;70.81
59545;BME280;45368;55.002;-1.592;2023-06-19T02:28:06;99698.61;;;15.89;70.58
59545;BME280;45368;55.002;-1.592;2023-06-19T02:30:32;99693.61;;;16.75;68.57
59545;BME280;45368;55.002;-1.592;2023-06-19T02:33:00;99691.93;;;16.23;69.45
59545;BME280;45368;55.002;-1.592;2023-06-19T02:35:27;99691.64;;;16.74;68.47
59545;BME280;45368;55.002;-1.592;2023-06-19T02:37:54;99690.54;;;16.12;69.94
59545;BME280;45368;55.002;-1.592;2023-06-19T02:40:22;99693.00;;;16.07;71.14
59545;BME280;45368;55.002;-1.592;2023-06-19T02:42:49;99694.64;;;15.50;72.28
59545;BME280;45368;55.002;-1.592;2023-06-19T02:45:17;99691.84;;;15.70;71.55
59545;BME280;45368;55.002;-1.592;2023-06-19T02:47:45;99697.86;;;15.80;72.04
59545;BME280;45368;55.002;-1.592;2023-06-19T02:50:12;99710.25;;;15.83;72.32
59545;BME280;45368;55.002;-1.592;2023-06-19T02:52:39;99717.73;;;15.20;73.78
59545;BME280;45368;55.002;-1.592;2023-06-19T02:55:08;99713.17;;;15.31;73.72
59545;BME280;45368;55.002;-1.592;2023-06-19T02:57:35;99707.76;;;15.79;71.89
59545;BME280;45368;55.002;-1.592;2023-06-19T03:00:03;99699.61;;;16.06;70.81
59545;BME280;45368;55.002;-1.592;2023-06-19T03:02:31;99699.23;;;16.15;70.58
59545;BME280;45368;55.002;-1.592;2023-06-19T03:04:58;99701.10;;;16.43;70.03
59545;BME280;45368;55.002;-1.592;2023-06-19T03:07:25;99699.89;;;16.53;69.28
59545;BME280;45368;55.002;-1.592;2023-06-19T03:09:52;99692.30;;;16.44;69.83
59545;BME280;45368;55.002;-1.592;2023-06-19T03:12:21;99693.76;;;16.45;68.77
59545;BME280;45368;55.002;-1.592;2023-06-19T03:14:48;99689.08;;;17.02;67.28
59545;BME280;45368;55.002;-1.592;2023-06-19T03:17:15;99690.54;;;16.60;68.23
59545;BME280;45368;55.002;-1.592;2023-06-19T03:19:42;99692.96;;;16.66;67.52
59545;BME280;45368;55.002;-1.592;2023-06-19T03:22:09;99694.83;;;16.92;67.01
59545;BME280;45368;55.002;-1.592;2023-06-19T03:24:36;99700.50;;;16.79;66.87
59545;BME280;45368;55.002;-1.592;2023-06-19T03:27:04;99706.18;;;15.94;68.57
59545;BME280;45368;55.002;-1.592;2023-06-19T03:29:31;99702.34;;;16.73;68.61
59545;BME280;45368;55.002;-1.592;2023-06-19T03:31:59;99707.71;;;16.28;68.06
59545;BME280;45368;55.002;-1.592;2023-06-19T03:34:26;99709.16;;;15.84;69.71
59545;BME280;45368;55.002;-1.592;2023-06-19T03:36:57;99708.28;;;16.30;68.74
59545;BME280;45368;55.002;-1.592;2023-06-19T03:39:24;99704.74;;;16.30;68.04
59545;BME280;45368;55.002;-1.592;2023-06-19T03:41:51;99709.14;;;16.55;67.09
59545;BME280;45368;55.002;-1.592;2023-06-19T03:44:18;99710.58;;;16.36;67.15
59545;BME280;45368;55.002;-1.592;2023-06-19T03:46:45;99716.57;;;16.38;67.21
59545;BME280;45368;55.002;-1.592;2023-06-19T03:49:13;99720.52;;;16.45;67.44
59545;BME280;45368;55.002;-1.592;2023-06-19T03:51:39;99722.13;;;15.60;68.93
59545;BME280;45368;55.002;-1.592;2023-06-19T03:54:06;99728.96;;;15.29;70.36
59545;BME280;45368;55.002;-1.592;2023-06-19T03:56:33;99732.34;;;15.63;69.58
59545;BME280;45368;55.002;-1.592;2023-06-19T03:59:00;99730.01;;;15.38;69.93
59545;BME280;45368;55.002;-1.592;2023-06-19T04:01:27;99728.39;;;15.55;68.91
59545;BME280;45368;55.002;-1.592;2023-06-19T04:03:54;99728.59;;;15.54;70.52
59545;BME280;45368;55.002;-1.592;2023-06-19T04:06:22;99729.98;;;15.75;68.89
59545;BME280;45368;55.002;-1.592;2023-06-19T04:08:49;99728.72;;;15.92;68.50
59545;BME280;45368;55.002;-1.592;2023-06-19T04:11:16;99736.95;;;15.87;67.42
59545;BME280;45368;55.002;-1.592;2023-06-19T04:13:43;99743.21;;;16.40;66.40
59545;BME280;45368;55.002;-1.592;2023-06-19T04:16:10;99745.59;;;16.31;66.40
59545;BME280;45368;55.002;-1.592;2023-06-19T04:18:36;99744.25;;;17.21;64.59
59545;BME280;45368;55.002;-1.592;2023-06-19T04:21:03;99746.31;;;17.17;64.07
59545;BME280;45368;55.002;-1.592;2023-06-19T04:23:31;99750.59;;;16.82;64.32
59545;BME280;45368;55.002;-1.592;2023-06-19T04:25:58;99752.69;;;16.58;65.20
59545;BME280;45368;55.002;-1.592;2023-06-19T04:28:26;99755.41;;;16.09;66.07
59545;BME280;45368;55.002;-1.592;2023-06-19T04:30:53;99758.55;;;16.19;65.94
59545;BME280;45368;55.002;-1.592;2023-06-19T04:33:20;99760.67;;;15.88;66.86
59545;BME280;45368;55.002;-1.592;2023-06-19T04:35:47;99769.11;;;16.06;66.16
59545;BME280;45368;55.002;-1.592;2023-06-19T04:38:15;99766.59;;;16.09;65.69
59545;BME280;45368;55.002;-1.592;2023-06-19T04:40:43;99763.68;;;15.54;68.16
59545;BME280;45368;55.002;-1.592;2023-06-19T04:43:09;99766.98;;;15.34;68.26
59545;BME280;45368;55.002;-1.592;2023-06-19T04:45:37;99770.64;;;16.15;65.87
59545;BME280;45368;55.002;-1.592;2023-06-19T04:48:04;99773.25;;;15.76;67.03
59545;BME280;45368;55.002;-1.592;2023-06-19T04:50:32;99776.23;;;15.77;66.14
59545;BME280;45368;55.002;-1.592;2023-06-19T04:52:59;99781.07;;;16.29;65.38
59545;BME280;45368;55.002;-1.592;2023-06-19T04:55:27;99781.58;;;16.06;66.90
59545;BME280;45368;55.002;-1.592;2023-06-19T04:57:55;99780.93;;;15.85;66.61
59545;BME280;45368;55.002;-1.592;2023-06-19T05:00:22;99779.18;;;16.59;64.80
59545;BME280;45368;55.002;-1.592;2023-06-19T05:02:49;99782.83;;;16.53;64.56
59545;BME280;45368;55.002;-1.592;2023-06-19T05:05:17;99782.85;;;16.33;65.35
59545;BME280;45368;55.002;-1.592;2023-06-19T05:07:44;99782.74;;;15.86;65.94
59545;BME280;45368;55.002;-1.592;2023-06-19T05:10:11;99783.45;;;16.06;66.10
59545;BME280;45368;55.002;-1.592;2023-06-19T05:12:38;99788.50;;;16.02;66.11
59545;BME280;45368;55.002;-1.592;2023-06-19T05:15:06;99785.69;;;16.26;65.07
59545;BME280;45368;55.002;-1.592;2023-06-19T05:17:33;99786.51;;;16.45;64.45
59545;BME280;45368;55.002;-1.592;2023-06-19T05:20:00;99788.60;;;15.82;65.95
59545;BME280;45368;55.002;-1.592;2023-06-19T05:22:28;99786.69;;;16.50;63.31
59545;BME280;45368;55.002;-1.592;2023-06-19T05:24:55;99788.57;;;16.32;64.43
59545;BME280;45368;55.002;-1.592;2023-06-19T05:27:23;99784.84;;;17.50;62.90
59545;BME280;45368;55.002;-1.592;2023-06-19T05:29:51;99782.98;;;16.93;62.98
59545;BME280;45368;55.002;-1.592;2023-06-19T05:32:17;99785.18;;;17.42;63.12
59545;BME280;45368;55.002;-1.592;2023-06-19T05:34:44;99784.92;;;17.74;61.52
59545;BME280;45368;55.002;-1.592;2023-06-19T05:37:11;99787.12;;;17.27;62.43
59545;BME280;45368;55.002;-1.592;2023-06-19T05:39:39;99789.34;;;17.15;63.00
59545;BME280;45368;55.002;-1.592;2023-06-19T05:42:07;99790.03;;;17.06;62.87
59545;BME280;45368;55.002;-1.592;2023-06-19T05:44:34;99794.13;;;16.58;64.61
59545;BME280;45368;55.002;-1.592;2023-06-19T05:47:02;99795.81;;;16.85;63.32
59545;BME280;45368;55.002;-1.592;2023-06-19T05:49:29;99793.71;;;16.60;64.10
59545;BME280;45368;55.002;-1.592;2023-06-19T05:51:56;99792.57;;;16.56;62.83
59545;BME280;45368;55.002;-1.592;2023-06-19T05:54:23;99790.01;;;17.39;62.08
59545;BME280;45368;55.002;-1.592;2023-06-19T05:56:50;99783.44;;;17.58;62.37
59545;BME280;45368;55.002;-1.592;2023-06-19T05:59:18;99782.51;;;17.29;62.39
59545;BME280;45368;55.002;-1.592;2023-06-19T06:01:46;99787.91;;;17.38;62.86
59545;BME280;45368;55.002;-1.592;2023-06-19T06:04:13;99799.89;;;17.59;62.17
59545;BME280;45368;55.002;-1.592;2023-06-19T06:06:41;99811.33;;;16.44;63.76
59545;BME280;45368;55.002;-1.592;2023-06-19T06:09:13;99810.20;;;17.14;62.75
59545;BME280;45368;55.002;-1.592;2023-06-19T06:11:41;99817.40;;;16.83;62.97
59545;BME280;45368;55.002;-1.592;2023-06-19T06:14:08;99818.29;;;17.69;61.68
59545;BME280;45368;55.002;-1.592;2023-06-19T06:16:35;99817.98;;;17.80;61.07
59545;BME280;45368;55.002;-1.592;2023-06-19T06:19:02;99820.99;;;17.36;61.42
59545;BME280;45368;55.002;-1.592;2023-06-19T06:21:30;99822.47;;;17.87;60.86
59545;BME280;45368;55.002;-1.592;2023-06-19T06:23:57;99822.59;;;16.89;61.86
59545;BME280;45368;55.002;-1.592;2023-06-19T06:26:25;99824.87;;;16.89;62.81
59545;BME280;45368;55.002;-1.592;2023-06-19T06:28:52;99822.29;;;17.45;61.78
59545;BME280;45368;55.002;-1.592;2023-06-19T06:31:19;99821.39;;;18.59;60.52
59545;BME280;45368;55.002;-1.592;2023-06-19T06:33:47;99825.65;;;17.76;60.85
59545;BME280;45368;55.002;-1.592;2023-06-19T06:36:15;99825.92;;;16.37;63.85
59545;BME280;45368;55.002;-1.592;2023-06-19T06:38:42;99826.97;;;17.65;61.13
59545;BME280;45368;55.002;-1.592;2023-06-19T06:41:10;99833.51;;;17.09;62.20
59545;BME280;45368;55.002;-1.592;2023-06-19T06:43:37;99837.82;;;18.05;61.22
59545;BME280;45368;55.002;-1.592;2023-06-19T06:46:05;99830.07;;;18.03;60.02
59545;BME280;45368;55.002;-1.592;2023-06-19T06:48:33;99841.35;;;17.62;59.68
59545;BME280;45368;55.002;-1.592;2023-06-19T06:50:59;99845.26;;;17.29;61.92
59545;BME280;45368;55.002;-1.592;2023-06-19T06:53:26;99840.43;;;18.05;60.48
59545;BME280;45368;55.002;-1.592;2023-06-19T06:55:54;99832.39;;;19.37;58.55
59545;BME280;45368;55.002;-1.592;2023-06-19T06:58:21;99844.22;;;17.32;61.45
59545;BME280;45368;55.002;-1.592;2023-06-19T07:00:48;99845.25;;;17.37;61.49
59545;BME280;45368;55.002;-1.592;2023-06-19T07:03:16;99851.34;;;17.65;60.21
59545;BME280;45368;55.002;-1.592;2023-06-19T07:05:44;99856.40;;;17.84;60.76
59545;BME280;45368;55.002;-1.592;2023-06-19T07:08:17;99856.43;;;17.47;60.85
59545;BME280;45368;55.002;-1.592;2023-06-19T07:10:44;99861.19;;;17.63;60.43
59545;BME280;45368;55.002;-1.592;2023-06-19T07:13:13;99859.23;;;18.05;60.44
59545;BME280;45368;55.002;-1.592;2023-06-19T07:15:41;99856.73;;;17.82;59.61
59545;BME280;45368;55.002;-1.592;2023-06-19T07:18:08;99863.79;;;17.87;61.87
59545;BME280;45368;55.002;-1.592;2023-06-19T07:20:36;99853.43;;;18.25;58.01
59545;BME280;45368;55.002;-1.592;2023-06-19T07:23:03;99853.15;;;18.22;59.60
59545;BME280;45368;55.002;-1.592;2023-06-19T07:25:31;99849.77;;;18.24;58.24
59545;BME280;45368;55.002;-1.592;2023-06-19T07:27:59;99853.27;;;18.50;59.09
59545;BME280;45368;55.002;-1.592;2023-06-19T07:30:26;99852.19;;;19.17;57.08
59545;BME280;45368;55.002;-1.592;2023-06-19T07:32:54;99855.61;;;17.90;58.37
59545;BME280;45368;55.002;-1.592;2023-06-19T07:35:22;99860.13;;;18.69;58.43
59545;BME280;45368;55.002;-1.592;2023-06-19T07:37:49;99866.52;;;18.32;56.55
59545;BME280;45368;55.002;-1.592;2023-06-19T07:40:17;99874.15;;;17.69;59.48
59545;BME280;45368;55.002;-1.592;2023-06-19T07:42:44;99874.45;;;18.80;56.86
59545;BME280;45368;55.002;-1.592;2023-06-19T07:45:12;99862.85;;;18.66;55.18
59545;BME280;45368;55.002;-1.592;2023-06-19T07:47:39;99860.37;;;19.06;55.44
59545;BME280;45368;55.002;-1.592;2023-06-19T07:50:07;99862.39;;;18.95;56.62
59545;BME280;45368;55.002;-1.592;2023-06-19T07:52:34;99860.58;;;18.75;56.39
59545;BME280;45368;55.002;-1.592;2023-06-19T07:55:01;99859.89;;;18.62;54.54
59545;BME280;45368;55.002;-1.592;2023-06-19T07:57:29;99858.33;;;19.51;54.93
59545;BME280;45368;55.002;-1.592;2023-06-19T07:59:56;99859.02;;;19.18;54.15
59545;BME280;45368;55.002;-1.592;2023-06-19T08:02:24;99854.67;;;19.43;53.73
59545;BME280;45368;55.002;-1.592;2023-06-19T08:04:51;99860.87;;;19.11;53.23
59545;BME280;45368;55.002;-1.592;2023-06-19T08:07:19;99856.37;;;19.11;53.86
59545;BME280;45368;55.002;-1.592;2023-06-19T08:09:46;99852.29;;;19.31;53.81
59545;BME280;45368;55.002;-1.592;2023-06-19T08:12:14;99860.25;;;19.19;52.68
59545;BME280;45368;55.002;-1.592;2023-06-19T08:14:42;99865.35;;;19.26;53.81
59545;BME280;45368;55.002;-1.592;2023-06-19T08:17:09;99872.12;;;18.03;54.96
59545;BME280;45368;55.002;-1.592;2023-06-19T08:19:37;99877.34;;;18.06;56.57
59545;BME280;45368;55.002;-1.592;2023-06-19T08:22:05;99871.67;;;18.78;53.04
59545;BME280;45368;55.002;-1.592;2023-06-19T08:24:35;99870.60;;;19.07;52.42
59545;BME280;45368;55.002;-1.592;2023-06-19T08:27:02;99864.52;;;18.73;53.02
59545;BME280;45368;55.002;-1.592;2023-06-19T08:29:29;99861.58;;;18.93;52.31
59545;BME280;45368;55.002;-1.592;2023-06-19T08:31:56;99863.24;;;18.95;52.28
59545;BME280;45368;55.002;-1.592;2023-06-19T08:34:24;99854.64;;;19.59;50.44
59545;BME280;45368;55.002;-1.592;2023-06-19T08:36:51;99856.74;;;20.34;48.06
59545;BME280;45368;55.002;-1.592;2023-06-19T08:39:19;99865.31;;;19.77;50.15
59545;BME280;45368;55.002;-1.592;2023-06-19T08:41:46;99867.02;;;19.14;49.94
59545;BME280;45368;55.002;-1.592;2023-06-19T08:44:14;99869.20;;;19.89;50.16
59545;BME280;45368;55.002;-1.592;2023-06-19T08:46:42;99868.01;;;19.43;50.79
59545;BME280;45368;55.002;-1.592;2023-06-19T08:49:10;99861.90;;;19.50;50.39
59545;BME280;45368;55.002;-1.592;2023-06-19T08:51:38;99865.32;;;19.62;50.62
59545;BME280;45368;55.002;-1.592;2023-06-19T08:54:07;99862.39;;;20.40;49.41
59545;BME280;45368;55.002;-1.592;2023-06-19T08:56:35;99863.92;;;19.72;50.45
59545;BME280;45368;55.002;-1.592;2023-06-19T08:59:13;99864.59;;;20.12;49.20
59545;BME280;45368;55.002;-1.592;2023-06-19T09:01:45;99865.23;;;20.36;48.45
59545;BME280;45368;55.002;-1.592;2023-06-19T09:04:13;99862.27;;;20.32;48.13
59545;BME280;45368;55.002;-1.592;2023-06-19T09:06:49;99864.62;;;20.41;49.06
59545;BME280;45368;55.002;-1.592;2023-06-19T09:09:17;99861.13;;;20.46;46.61
59545;BME280;45368;55.002;-1.592;2023-06-19T09:11:57;99867.22;;;20.23;46.99
59545;BME280;45368;55.002;-1.592;2023-06-19T09:14:30;99875.38;;;20.15;48.78
59545;BME280;45368;55.002;-1.592;2023-06-19T09:16:58;99876.21;;;20.43;48.64
59545;BME280;45368;55.002;-1.592;2023-06-19T09:19:25;99875.95;;;20.16;48.26
59545;BME280;45368;55.002;-1.592;2023-06-19T09:21:58;99877.55;;;20.45;48.28
59545;BME280;45368;55.002;-1.592;2023-06-19T09:24:33;99880.09;;;20.58;48.06
59545;BME280;45368;55.002;-1.592;2023-06-19T09:27:07;99875.96;;;20.87;46.81
59545;BME280;45368;55.002;-1.592;2023-06-19T09:29:36;99875.29;;;19.99;49.38
59545;BME280;45368;55.002;-1.592;2023-06-19T09:32:14;99880.63;;;20.30;48.72
59545;BME280;45368;55.002;-1.592;2023-06-19T09:34:41;99884.63;;;20.34;48.97
59545;BME280;45368;55.002;-1.592;2023-06-19T09:37:09;99883.58;;;19.99;49.38
59545;BME280;45368;55.002;-1.592;2023-06-19T09:39:37;99883.42;;;20.42;50.80
59545;BME280;45368;55.002;-1.592;2023-06-19T09:42:07;99890.83;;;20.62;50.19
59545;BME280;45368;55.002;-1.592;2023-06-19T09:44:39;99882.49;;;19.31;51.44
59545;BME280;45368;55.002;-1.592;2023-06-19T09:47:14;99883.03;;;19.72;51.14
59545;BME280;45368;55.002;-1.592;2023-06-19T09:49:42;99884.94;;;19.78;51.19
59545;BME280;45368;55.002;-1.592;2023-06-19T09:52:09;99885.58;;;19.72;50.35
59545;BME280;45368;55.002;-1.592;2023-06-19T09:54:38;99886.23;;;19.96;50.92
59545;BME280;45368;55.002;-1.592;2023-06-19T09:57:07;99883.38;;;20.40;48.75
59545;BME280;45368;55.002;-1.592;2023-06-19T09:59:35;99889.25;;;20.63;49.41
59545;BME280;45368;55.002;-1.592;2023-06-19T10:02:04;99888.39;;;19.89;49.56
59545;BME280;45368;55.002;-1.592;2023-06-19T10:04:42;99888.00;;;19.77;50.27
59545;BME280;45368;55.002;-1.592;2023-06-19T10:07:15;99899.76;;;20.36;50.86
59545;BME280;45368;55.002;-1.592;2023-06-19T10:09:55;99894.77;;;21.08;49.45
59545;BME280;45368;55.002;-1.592;2023-06-19T10:12:22;99897.07;;;21.24;46.27
59545;BME280;45368;55.002;-1.592;2023-06-19T10:14:50;99895.19;;;20.64;47.93
59545;BME280;45368;55.002;-1.592;2023-06-19T10:17:17;99898.64;;;20.52;48.63
59545;BME280;45368;55.002;-1.592;2023-06-19T10:19:49;99892.44;;;20.64;48.46
59545;BME280;45368;55.002;-1.592;2023-06-19T10:22:20;99899.63;;;20.43;48.38
59545;BME280;45368;55.002;-1.592;2023-06-19T10:24:50;99897.31;;;20.78;49.07
59545;BME280;45368;55.002;-1.592;2023-06-19T10:27:21;99893.00;;;20.47;50.02
59545;BME280;45368;55.002;-1.592;2023-06-19T10:29:53;99900.54;;;20.51;48.80
59545;BME280;45368;55.002;-1.592;2023-06-19T10:32:21;99899.06;;;20.98;47.35
59545;BME280;45368;55.002;-1.592;2023-06-19T10:34:48;99904.63;;;21.50;47.11
59545;BME280;45368;55.002;-1.592;2023-06-19T10:37:16;99907.76;;;20.60;48.16
59545;BME280;45368;55.002;-1.592;2023-06-19T10:39:44;99906.03;;;20.55;48.27
59545;BME280;45368;55.002;-1.592;2023-06-19T10:42:11;99899.86;;;20.89;47.14
59545;BME280;45368;55.002;-1.592;2023-06-19T10:44:39;99895.91;;;21.03;45.85
59545;BME280;45368;55.002;-1.592;2023-06-19T10:47:06;99893.80;;;21.57;45.47
59545;BME280;45368;55.002;-1.592;2023-06-19T10:49:33;99889.45;;;21.92;46.17
59545;BME280;45368;55.002;-1.592;2023-06-19T10:52:01;99897.41;;;22.02;45.63
59545;BME280;45368;55.002;-1.592;2023-06-19T10:54:28;99901.04;;;22.10;45.95
59545;BME280;45368;55.002;-1.592;2023-06-19T10:56:56;99901.30;;;21.98;43.71
59545;BME280;45368;55.002;-1.592;2023-06-19T10:59:24;99903.12;;;21.65;44.30
59545;BME280;45368;55.002;-1.592;2023-06-19T11:01:52;99905.37;;;22.52;43.01
59545;BME280;45368;55.002;-1.592;2023-06-19T11:04:20;99910.10;;;22.17;42.48
59545;BME280;45368;55.002;-1.592;2023-06-19T11:06:47;99904.49;;;22.79;40.88
59545;BME280;45368;55.002;-1.592;2023-06-19T11:09:14;99907.34;;;22.62;40.85
59545;BME280;45368;55.002;-1.592;2023-06-19T11:11:45;99911.15;;;21.63;42.39
59545;BME280;45368;55.002;-1.592;2023-06-19T11:14:14;99900.87;;;23.75;39.01
59545;BME280;45368;55.002;-1.592;2023-06-19T11:16:44;99897.45;;;26.03;37.37
59545;BME280;45368;55.002;-1.592;2023-06-19T11:19:14;99899.57;;;25.55;36.74
59545;BME280;45368;55.002;-1.592;2023-06-19T11:21:46;99897.92;;;25.59;36.11
59545;BME280;45368;55.002;-1.592;2023-06-19T11:24:14;99910.07;;;23.68;38.33
59545;BME280;45368;55.002;-1.592;2023-06-19T11:26:43;99907.69;;;23.77;38.42
59545;BME280;45368;55.002;-1.592;2023-06-19T11:29:15;99910.25;;;23.67;36.32
59545;BME280;45368;55.002;-1.592;2023-06-19T11:31:43;99904.78;;;25.18;35.25
59545;BME280;45368;55.002;-1.592;2023-06-19T11:34:11;99899.52;;;25.54;34.01
59545;BME280;45368;55.002;-1.592;2023-06-19T11:36:38;99904.28;;;27.51;33.18
59545;BME280;45368;55.002;-1.592;2023-06-19T11:39:10;99911.87;;;24.08;36.63
59545;BME280;45368;55.002;-1.592;2023-06-19T11:41:38;99908.89;;;24.03;38.88
59545;BME280;45368;55.002;-1.592;2023-06-19T11:44:07;99911.22;;;24.54;37.59
59545;BME280;45368;55.002;-1.592;2023-06-19T11:46:34;99912.22;;;26.48;33.86
59545;BME280;45368;55.002;-1.592;2023-06-19T11:49:10;99911.03;;;27.06;31.81
59545;BME280;45368;55.002;-1.592;2023-06-19T11:51:39;99909.84;;;26.43;32.87
59545;BME280;45368;55.002;-1.592;2023-06-19T11:54:09;99909.82;;;26.12;32.56
59545;BME280;45368;55.002;-1.592;2023-06-19T11:56:37;99918.49;;;24.70;36.03
59545;BME280;45368;55.002;-1.592;2023-06-19T11:59:05;99920.13;;;23.49;37.59
59545;BME280;45368;55.002;-1.592;2023-06-19T12:01:34;99921.67;;;23.93;38.91
59545;BME280;45368;55.002;-1.592;2023-06-19T12:04:01;99919.12;;;23.50;39.44
59545;BME280;45368;55.002;-1.592;2023-06-19T12:06:29;99915.92;;;23.50;39.08
59545;BME280;45368;55.002;-1.592;2023-06-19T12:08:57;99925.62;;;22.37;42.02
59545;BME280;45368;55.002;-1.592;2023-06-19T12:11:24;99918.50;;;21.79;41.38
59545;BME280;45368;55.002;-1.592;2023-06-19T12:13:51;99924.69;;;21.70;40.73
59545;BME280;45368;55.002;-1.592;2023-06-19T12:16:19;99934.28;;;21.62;41.76
59545;BME280;45368;55.002;-1.592;2023-06-19T12:18:47;99927.34;;;21.92;41.31
59545;BME280;45368;55.002;-1.592;2023-06-19T12:21:14;99928.16;;;21.62;40.62
59545;BME280;45368;55.002;-1.592;2023-06-19T12:23:42;99933.69;;;22.22;40.51
59545;BME280;45368;55.002;-1.592;2023-06-19T12:26:10;99940.79;;;21.97;39.64
59545;BME280;45368;55.002;-1.592;2023-06-19T12:28:37;99948.31;;;21.85;39.73
59545;BME280;45368;55.002;-1.592;2023-06-19T12:31:05;99946.79;;;21.55;40.01
59545;BME280;45368;55.002;-1.592;2023-06-19T12:33:32;99948.14;;;21.30;40.84
59545;BME280;45368;55.002;-1.592;2023-06-19T12:36:00;99956.83;;;21.58;42.25
59545;BME280;45368;55.002;-1.592;2023-06-19T12:38:28;99957.67;;;21.89;41.26
59545;BME280;45368;55.002;-1.592;2023-06-19T12:40:55;99960.58;;;21.09;42.79
59545;BME280;45368;55.002;-1.592;2023-06-19T12:43:23;99963.46;;;21.14;42.75
59545;BME280;45368;55.002;-1.592;2023-06-19T12:45:51;99964.42;;;21.20;42.99
59545;BME280;45368;55.002;-1.592;2023-06-19T12:48:18;99968.45;;;21.75;42.35
59545;BME280;45368;55.002;-1.592;2023-06-19T12:50:46;99965.47;;;20.99;43.04
59545;BME280;45368;55.002;-1.592;2023-06-19T12:53:14;99970.14;;;20.50;43.90